sensor_id;sensor_type;location;lat;lon;timestamp;P1;durP1;ratioP1;P2;durP2;ratioP2
80961;SDS011;70424;55.154;14.722;2024-02-26T00:00:30;2.28;;;1.73;;
80961;SDS011;70424;55.154;14.722;2024-02-26T00:02:55;2.03;;;1.30;;
80961;SDS011;70424;55.154;14.722;2024-02-26T00:05:21;2.90;;;1.80;;
80961;SDS011;70424;55.154;14.722;2024-02-26T00:07:46;1.85;;;1.33;;
80961;SDS011;70424;55.154;14.722;2024-02-26T00:10:12;2.25;;;1.55;;
80961;SDS011;70424;55.154;14.722;2024-02-26T00:12:39;1.73;;;1.50;;
80961;SDS011;70424;55.154;14.722;2024-02-26T00:15:08;1.90;;;1.30;;
80961;SDS011;70424;55.154;14.722;2024-02-26T00:17:34;2.22;;;1.42;;
80961;SDS011;70424;55.154;14.722;2024-02-26T00:20:00;2.50;;;1.33;;
80961;SDS011;70424;55.154;14.722;2024-02-26T00:22:29;2.38;;;1.55;;
80961;SDS011;70424;55.154;14.722;2024-02-26T00:24:55;4.70;;;1.95;;
80961;SDS011;70424;55.154;14.722;2024-02-26T00:27:20;1.98;;;1.70;;
80961;SDS011;70424;55.154;14.722;2024-02-26T00:29:46;2.60;;;1.90;;
80961;SDS011;70424;55.154;14.722;2024-02-26T00:32:11;2.72;;;1.88;;
80961;SDS011;70424;55.154;14.722;2024-02-26T00:34:36;2.50;;;1.63;;
80961;SDS011;70424;55.154;14.722;2024-02-26T00:37:02;3.40;;;1.90;;
80961;SDS011;70424;55.154;14.722;2024-02-26T00:39:28;3.78;;;2.15;;
80961;SDS011;70424;55.154;14.722;2024-02-26T00:41:53;3.05;;;2.00;;
80961;SDS011;70424;55.154;14.722;2024-02-26T00:44:19;3.47;;;1.85;;
80961;SDS011;70424;55.154;14.722;2024-02-26T00:46:44;4.10;;;2.20;;
80961;SDS011;70424;55.154;14.722;2024-02-26T00:49:10;3.38;;;1.88;;
80961;SDS011;70424;55.154;14.722;2024-02-26T00:51:35;3.08;;;1.77;;
80961;SDS011;70424;55.154;14.722;2024-02-26T00:54:01;3.92;;;2.10;;
80961;SDS011;70424;55.154;14.722;2024-02-26T00:56:27;3.30;;;1.95;;
80961;SDS011;70424;55.154;14.722;2024-02-26T00:58:53;4.47;;;2.05;;
80961;SDS011;70424;55.154;14.722;2024-02-26T01:01:18;5.22;;;2.03;;
80961;SDS011;70424;55.154;14.722;2024-02-26T01:03:43;4.22;;;1.90;;
80961;SDS011;70424;55.154;14.722;2024-02-26T01:06:09;3.63;;;1.92;;
80961;SDS011;70424;55.154;14.722;2024-02-26T01:08:34;2.25;;;1.70;;
80961;SDS011;70424;55.154;14.722;2024-02-26T01:11:00;2.47;;;1.67;;
80961;SDS011;70424;55.154;14.722;2024-02-26T01:13:26;2.92;;;1.80;;
80961;SDS011;70424;55.154;14.722;2024-02-26T01:15:52;2.50;;;1.80;;
80961;SDS011;70424;55.154;14.722;2024-02-26T01:18:18;2.50;;;2.00;;
80961;SDS011;70424;55.154;14.722;2024-02-26T01:20:43;2.55;;;1.80;;
80961;SDS011;70424;55.154;14.722;2024-02-26T01:23:08;2.72;;;2.17;;
80961;SDS011;70424;55.154;14.722;2024-02-26T01:25:34;3.35;;;2.10;;
80961;SDS011;70424;55.154;14.722;2024-02-26T01:27:59;2.35;;;1.90;;
80961;SDS011;70424;55.154;14.722;2024-02-26T01:30:25;2.63;;;1.80;;
80961;SDS011;70424;55.154;14.722;2024-02-26T01:32:50;3.45;;;1.88;;
80961;SDS011;70424;55.154;14.722;2024-02-26T01:35:15;3.08;;;1.90;;
80961;SDS011;70424;55.154;14.722;2024-02-26T01:37:41;3.88;;;1.90;;
80961;SDS011;70424;55.154;14.722;2024-02-26T01:40:07;2.33;;;2.00;;
80961;SDS011;70424;55.154;14.722;2024-02-26T01:42:34;3.42;;;2.05;;
80961;SDS011;70424;55.154;14.722;2024-02-26T01:45:03;3.30;;;2.20;;
80961;SDS011;70424;55.154;14.722;2024-02-26T01:47:29;2.92;;;2.08;;
80961;SDS011;70424;55.154;14.722;2024-02-26T01:49:54;3.30;;;2.10;;
80961;SDS011;70424;55.154;14.722;2024-02-26T01:52:20;2.90;;;2.13;;
80961;SDS011;70424;55.154;14.722;2024-02-26T01:54:46;4.47;;;2.30;;
80961;SDS011;70424;55.154;14.722;2024-02-26T01:57:12;3.55;;;2.20;;
80961;SDS011;70424;55.154;14.722;2024-02-26T01:59:38;3.17;;;2.20;;
80961;SDS011;70424;55.154;14.722;2024-02-26T02:02:05;3.33;;;2.30;;
80961;SDS011;70424;55.154;14.722;2024-02-26T02:04:32;3.15;;;2.03;;
80961;SDS011;70424;55.154;14.722;2024-02-26T02:06:58;2.78;;;2.05;;
80961;SDS011;70424;55.154;14.722;2024-02-26T02:09:26;2.83;;;2.05;;
80961;SDS011;70424;55.154;14.722;2024-02-26T02:11:53;3.47;;;2.22;;
80961;SDS011;70424;55.154;14.722;2024-02-26T02:14:19;2.50;;;1.90;;
80961;SDS011;70424;55.154;14.722;2024-02-26T02:16:44;4.07;;;2.00;;
80961;SDS011;70424;55.154;14.722;2024-02-26T02:19:10;3.60;;;2.20;;
80961;SDS011;70424;55.154;14.722;2024-02-26T02:21:36;3.67;;;2.30;;
80961;SDS011;70424;55.154;14.722;2024-02-26T02:24:01;3.70;;;2.40;;
80961;SDS011;70424;55.154;14.722;2024-02-26T02:26:27;2.58;;;1.88;;
80961;SDS011;70424;55.154;14.722;2024-02-26T02:28:52;3.83;;;2.17;;
80961;SDS011;70424;55.154;14.722;2024-02-26T02:31:18;3.05;;;2.10;;
80961;SDS011;70424;55.154;14.722;2024-02-26T02:33:44;3.60;;;2.40;;
80961;SDS011;70424;55.154;14.722;2024-02-26T02:36:09;2.92;;;2.05;;
80961;SDS011;70424;55.154;14.722;2024-02-26T02:38:38;2.83;;;2.03;;
80961;SDS011;70424;55.154;14.722;2024-02-26T02:41:15;3.53;;;2.28;;
80961;SDS011;70424;55.154;14.722;2024-02-26T02:43:40;2.58;;;2.08;;
80961;SDS011;70424;55.154;14.722;2024-02-26T02:46:05;3.35;;;2.03;;
80961;SDS011;70424;55.154;14.722;2024-02-26T02:48:31;3.22;;;2.13;;
80961;SDS011;70424;55.154;14.722;2024-02-26T02:50:56;2.72;;;2.10;;
80961;SDS011;70424;55.154;14.722;2024-02-26T02:53:21;2.38;;;2.03;;
80961;SDS011;70424;55.154;14.722;2024-02-26T02:55:47;2.53;;;2.00;;
80961;SDS011;70424;55.154;14.722;2024-02-26T02:58:12;3.47;;;2.47;;
80961;SDS011;70424;55.154;14.722;2024-02-26T03:00:38;3.92;;;2.15;;
80961;SDS011;70424;55.154;14.722;2024-02-26T03:03:04;3.33;;;2.00;;
80961;SDS011;70424;55.154;14.722;2024-02-26T03:05:29;2.17;;;1.90;;
80961;SDS011;70424;55.154;14.722;2024-02-26T03:07:55;3.10;;;2.42;;
80961;SDS011;70424;55.154;14.722;2024-02-26T03:10:20;4.30;;;2.15;;
80961;SDS011;70424;55.154;14.722;2024-02-26T03:12:45;3.72;;;2.20;;
80961;SDS011;70424;55.154;14.722;2024-02-26T03:15:11;2.40;;;2.15;;
80961;SDS011;70424;55.154;14.722;2024-02-26T03:17:37;4.50;;;2.30;;
80961;SDS011;70424;55.154;14.722;2024-02-26T03:20:02;3.03;;;1.92;;
80961;SDS011;70424;55.154;14.722;2024-02-26T03:22:30;2.60;;;1.88;;
80961;SDS011;70424;55.154;14.722;2024-02-26T03:24:55;2.53;;;1.92;;
80961;SDS011;70424;55.154;14.722;2024-02-26T03:27:21;3.60;;;2.30;;
80961;SDS011;70424;55.154;14.722;2024-02-26T03:29:46;4.20;;;2.35;;
80961;SDS011;70424;55.154;14.722;2024-02-26T03:32:13;2.55;;;1.88;;
80961;SDS011;70424;55.154;14.722;2024-02-26T03:34:38;2.58;;;1.98;;
80961;SDS011;70424;55.154;14.722;2024-02-26T03:37:05;2.55;;;2.05;;
80961;SDS011;70424;55.154;14.722;2024-02-26T03:39:31;4.75;;;2.50;;
80961;SDS011;70424;55.154;14.722;2024-02-26T03:41:57;4.65;;;2.85;;
80961;SDS011;70424;55.154;14.722;2024-02-26T03:44:22;4.40;;;2.60;;
80961;SDS011;70424;55.154;14.722;2024-02-26T03:46:48;4.43;;;2.40;;
80961;SDS011;70424;55.154;14.722;2024-02-26T03:49:13;4.32;;;2.58;;
80961;SDS011;70424;55.154;14.722;2024-02-26T03:51:38;4.88;;;2.50;;
80961;SDS011;70424;55.154;14.722;2024-02-26T03:54:04;4.10;;;2.38;;
80961;SDS011;70424;55.154;14.722;2024-02-26T03:56:29;3.95;;;2.50;;
80961;SDS011;70424;55.154;14.722;2024-02-26T03:58:55;4.20;;;2.30;;
80961;SDS011;70424;55.154;14.722;2024-02-26T04:01:20;3.50;;;2.50;;
80961;SDS011;70424;55.154;14.722;2024-02-26T04:03:46;4.13;;;2.45;;
80961;SDS011;70424;55.154;14.722;2024-02-26T04:06:11;3.55;;;2.45;;
80961;SDS011;70424;55.154;14.722;2024-02-26T04:08:39;3.10;;;2.40;;
80961;SDS011;70424;55.154;14.722;2024-02-26T04:11:05;4.28;;;2.75;;
80961;SDS011;70424;55.154;14.722;2024-02-26T04:13:32;3.70;;;2.35;;
80961;SDS011;70424;55.154;14.722;2024-02-26T04:15:58;3.83;;;2.55;;
80961;SDS011;70424;55.154;14.722;2024-02-26T04:18:26;3.53;;;2.45;;
80961;SDS011;70424;55.154;14.722;2024-02-26T04:20:52;3.70;;;2.47;;
80961;SDS011;70424;55.154;14.722;2024-02-26T04:23:17;3.65;;;2.40;;
80961;SDS011;70424;55.154;14.722;2024-02-26T04:25:43;4.05;;;2.60;;
80961;SDS011;70424;55.154;14.722;2024-02-26T04:28:08;4.38;;;2.50;;
80961;SDS011;70424;55.154;14.722;2024-02-26T04:30:33;4.43;;;2.70;;
80961;SDS011;70424;55.154;14.722;2024-02-26T04:32:59;3.15;;;2.15;;
80961;SDS011;70424;55.154;14.722;2024-02-26T04:35:24;3.08;;;2.50;;
80961;SDS011;70424;55.154;14.722;2024-02-26T04:37:50;4.40;;;2.58;;
80961;SDS011;70424;55.154;14.722;2024-02-26T04:40:15;4.97;;;2.70;;
80961;SDS011;70424;55.154;14.722;2024-02-26T04:42:40;10.18;;;5.45;;
80961;SDS011;70424;55.154;14.722;2024-02-26T04:45:06;30.67;;;11.05;;
80961;SDS011;70424;55.154;14.722;2024-02-26T04:47:33;26.38;;;10.52;;
80961;SDS011;70424;55.154;14.722;2024-02-26T04:49:58;30.70;;;11.20;;
80961;SDS011;70424;55.154;14.722;2024-02-26T04:52:25;25.38;;;10.50;;
80961;SDS011;70424;55.154;14.722;2024-02-26T04:54:50;26.23;;;10.68;;
80961;SDS011;70424;55.154;14.722;2024-02-26T04:57:15;23.52;;;9.18;;
80961;SDS011;70424;55.154;14.722;2024-02-26T04:59:43;20.30;;;8.80;;
80961;SDS011;70424;55.154;14.722;2024-02-26T05:02:10;15.77;;;7.97;;
80961;SDS011;70424;55.154;14.722;2024-02-26T05:04:35;14.18;;;7.43;;
80961;SDS011;70424;55.154;14.722;2024-02-26T05:07:01;12.52;;;5.78;;
80961;SDS011;70424;55.154;14.722;2024-02-26T05:09:26;10.30;;;5.20;;
80961;SDS011;70424;55.154;14.722;2024-02-26T05:11:51;8.73;;;5.07;;
80961;SDS011;70424;55.154;14.722;2024-02-26T05:14:17;6.32;;;3.80;;
80961;SDS011;70424;55.154;14.722;2024-02-26T05:16:43;5.82;;;3.28;;
80961;SDS011;70424;55.154;14.722;2024-02-26T05:19:08;5.78;;;3.00;;
80961;SDS011;70424;55.154;14.722;2024-02-26T05:21:33;4.32;;;2.85;;
80961;SDS011;70424;55.154;14.722;2024-02-26T05:23:59;4.68;;;2.60;;
80961;SDS011;70424;55.154;14.722;2024-02-26T05:26:25;3.83;;;2.70;;
80961;SDS011;70424;55.154;14.722;2024-02-26T05:28:50;4.38;;;2.25;;
80961;SDS011;70424;55.154;14.722;2024-02-26T05:31:15;3.42;;;2.40;;
80961;SDS011;70424;55.154;14.722;2024-02-26T05:33:41;3.72;;;2.40;;
80961;SDS011;70424;55.154;14.722;2024-02-26T05:36:07;4.40;;;2.75;;
80961;SDS011;70424;55.154;14.722;2024-02-26T05:38:33;5.05;;;3.60;;
80961;SDS011;70424;55.154;14.722;2024-02-26T05:40:58;5.80;;;3.00;;
80961;SDS011;70424;55.154;14.722;2024-02-26T05:43:25;3.80;;;2.95;;
80961;SDS011;70424;55.154;14.722;2024-02-26T05:45:50;4.75;;;3.10;;
80961;SDS011;70424;55.154;14.722;2024-02-26T05:48:16;5.35;;;3.33;;
80961;SDS011;70424;55.154;14.722;2024-02-26T05:50:44;5.70;;;3.72;;
80961;SDS011;70424;55.154;14.722;2024-02-26T05:53:09;4.63;;;2.97;;
80961;SDS011;70424;55.154;14.722;2024-02-26T05:55:35;9.45;;;4.40;;
80961;SDS011;70424;55.154;14.722;2024-02-26T05:58:01;7.13;;;3.97;;
80961;SDS011;70424;55.154;14.722;2024-02-26T06:00:26;8.25;;;4.72;;
80961;SDS011;70424;55.154;14.722;2024-02-26T06:02:51;8.00;;;4.50;;
80961;SDS011;70424;55.154;14.722;2024-02-26T06:05:17;9.52;;;4.57;;
80961;SDS011;70424;55.154;14.722;2024-02-26T06:07:42;9.90;;;5.20;;
80961;SDS011;70424;55.154;14.722;2024-02-26T06:10:07;9.82;;;5.30;;
80961;SDS011;70424;55.154;14.722;2024-02-26T06:12:36;10.57;;;5.55;;
80961;SDS011;70424;55.154;14.722;2024-02-26T06:15:02;10.43;;;5.63;;
80961;SDS011;70424;55.154;14.722;2024-02-26T06:17:27;8.88;;;4.85;;
80961;SDS011;70424;55.154;14.722;2024-02-26T06:19:53;8.50;;;4.50;;
80961;SDS011;70424;55.154;14.722;2024-02-26T06:22:19;8.55;;;4.93;;
80961;SDS011;70424;55.154;14.722;2024-02-26T06:24:44;8.70;;;4.80;;
80961;SDS011;70424;55.154;14.722;2024-02-26T06:27:09;7.78;;;4.35;;
80961;SDS011;70424;55.154;14.722;2024-02-26T06:29:35;9.48;;;4.53;;
80961;SDS011;70424;55.154;14.722;2024-02-26T06:32:00;7.20;;;3.88;;
80961;SDS011;70424;55.154;14.722;2024-02-26T06:34:26;5.90;;;3.72;;
80961;SDS011;70424;55.154;14.722;2024-02-26T06:36:51;5.40;;;3.90;;
80961;SDS011;70424;55.154;14.722;2024-02-26T06:39:16;6.55;;;4.03;;
80961;SDS011;70424;55.154;14.722;2024-02-26T06:41:43;7.65;;;3.85;;
80961;SDS011;70424;55.154;14.722;2024-02-26T06:44:08;6.68;;;4.15;;
80961;SDS011;70424;55.154;14.722;2024-02-26T06:46:34;7.07;;;4.28;;
80961;SDS011;70424;55.154;14.722;2024-02-26T06:48:59;10.73;;;6.07;;
80961;SDS011;70424;55.154;14.722;2024-02-26T06:51:25;10.18;;;5.63;;
80961;SDS011;70424;55.154;14.722;2024-02-26T06:53:50;13.32;;;6.95;;
80961;SDS011;70424;55.154;14.722;2024-02-26T06:56:16;15.00;;;7.32;;
80961;SDS011;70424;55.154;14.722;2024-02-26T06:58:41;15.60;;;9.85;;
80961;SDS011;70424;55.154;14.722;2024-02-26T07:01:06;15.63;;;10.02;;
80961;SDS011;70424;55.154;14.722;2024-02-26T07:03:33;27.45;;;15.82;;
80961;SDS011;70424;55.154;14.722;2024-02-26T07:05:59;24.40;;;15.60;;
80961;SDS011;70424;55.154;14.722;2024-02-26T07:08:24;21.50;;;12.73;;
80961;SDS011;70424;55.154;14.722;2024-02-26T07:10:49;16.45;;;10.98;;
80961;SDS011;70424;55.154;14.722;2024-02-26T07:13:15;15.45;;;8.98;;
80961;SDS011;70424;55.154;14.722;2024-02-26T07:15:40;14.85;;;8.35;;
80961;SDS011;70424;55.154;14.722;2024-02-26T07:18:06;9.48;;;6.07;;
80961;SDS011;70424;55.154;14.722;2024-02-26T07:20:31;9.18;;;4.75;;
80961;SDS011;70424;55.154;14.722;2024-02-26T07:22:57;7.82;;;4.20;;
80961;SDS011;70424;55.154;14.722;2024-02-26T07:25:23;6.43;;;4.00;;
80961;SDS011;70424;55.154;14.722;2024-02-26T07:27:49;8.07;;;4.22;;
80961;SDS011;70424;55.154;14.722;2024-02-26T07:30:15;5.35;;;3.67;;
80961;SDS011;70424;55.154;14.722;2024-02-26T07:32:41;6.10;;;3.72;;
80961;SDS011;70424;55.154;14.722;2024-02-26T07:35:07;6.10;;;3.90;;
80961;SDS011;70424;55.154;14.722;2024-02-26T07:37:33;6.68;;;4.78;;
80961;SDS011;70424;55.154;14.722;2024-02-26T07:39:58;6.68;;;4.22;;
80961;SDS011;70424;55.154;14.722;2024-02-26T07:42:24;8.00;;;5.10;;
80961;SDS011;70424;55.154;14.722;2024-02-26T07:44:50;7.10;;;4.63;;
80961;SDS011;70424;55.154;14.722;2024-02-26T07:47:16;9.38;;;5.35;;
80961;SDS011;70424;55.154;14.722;2024-02-26T07:49:41;8.75;;;5.55;;
80961;SDS011;70424;55.154;14.722;2024-02-26T07:52:06;10.45;;;5.53;;
80961;SDS011;70424;55.154;14.722;2024-02-26T07:54:32;10.85;;;6.00;;
80961;SDS011;70424;55.154;14.722;2024-02-26T07:56:57;8.90;;;5.68;;
80961;SDS011;70424;55.154;14.722;2024-02-26T07:59:23;11.18;;;6.95;;
80961;SDS011;70424;55.154;14.722;2024-02-26T08:01:52;10.68;;;7.35;;
80961;SDS011;70424;55.154;14.722;2024-02-26T08:04:17;10.82;;;7.68;;
80961;SDS011;70424;55.154;14.722;2024-02-26T08:06:43;10.55;;;6.50;;
80961;SDS011;70424;55.154;14.722;2024-02-26T08:09:08;13.20;;;7.90;;
80961;SDS011;70424;55.154;14.722;2024-02-26T08:11:34;10.57;;;7.32;;
80961;SDS011;70424;55.154;14.722;2024-02-26T08:13:59;10.50;;;6.97;;
80961;SDS011;70424;55.154;14.722;2024-02-26T08:16:25;10.43;;;7.03;;
80961;SDS011;70424;55.154;14.722;2024-02-26T08:18:50;11.82;;;7.32;;
80961;SDS011;70424;55.154;14.722;2024-02-26T08:21:16;10.75;;;7.60;;
80961;SDS011;70424;55.154;14.722;2024-02-26T08:23:42;12.45;;;8.48;;
80961;SDS011;70424;55.154;14.722;2024-02-26T08:26:08;11.32;;;7.68;;
80961;SDS011;70424;55.154;14.722;2024-02-26T08:28:36;13.30;;;7.93;;
80961;SDS011;70424;55.154;14.722;2024-02-26T08:31:02;12.50;;;8.00;;
80961;SDS011;70424;55.154;14.722;2024-02-26T08:33:28;12.77;;;7.53;;
80961;SDS011;70424;55.154;14.722;2024-02-26T08:35:53;12.23;;;7.47;;
80961;SDS011;70424;55.154;14.722;2024-02-26T08:38:19;10.95;;;7.45;;
80961;SDS011;70424;55.154;14.722;2024-02-26T08:40:44;10.93;;;7.20;;
80961;SDS011;70424;55.154;14.722;2024-02-26T08:43:09;9.95;;;7.18;;
80961;SDS011;70424;55.154;14.722;2024-02-26T08:45:35;10.85;;;7.03;;
80961;SDS011;70424;55.154;14.722;2024-02-26T08:48:00;12.07;;;7.32;;
80961;SDS011;70424;55.154;14.722;2024-02-26T08:50:26;9.55;;;6.65;;
80961;SDS011;70424;55.154;14.722;2024-02-26T08:52:51;10.52;;;7.00;;
80961;SDS011;70424;55.154;14.722;2024-02-26T08:55:18;11.27;;;6.55;;
80961;SDS011;70424;55.154;14.722;2024-02-26T08:57:43;9.05;;;6.40;;
80961;SDS011;70424;55.154;14.722;2024-02-26T09:00:10;10.52;;;6.60;;
80961;SDS011;70424;55.154;14.722;2024-02-26T09:02:36;9.95;;;6.43;;
80961;SDS011;70424;55.154;14.722;2024-02-26T09:05:04;10.98;;;6.10;;
80961;SDS011;70424;55.154;14.722;2024-02-26T09:07:30;8.80;;;5.83;;
80961;SDS011;70424;55.154;14.722;2024-02-26T09:09:56;8.30;;;5.63;;
80961;SDS011;70424;55.154;14.722;2024-02-26T09:12:21;10.00;;;5.90;;
80961;SDS011;70424;55.154;14.722;2024-02-26T09:14:47;9.60;;;5.38;;
80961;SDS011;70424;55.154;14.722;2024-02-26T09:17:12;8.48;;;5.35;;
80961;SDS011;70424;55.154;14.722;2024-02-26T09:19:38;10.55;;;5.78;;
80961;SDS011;70424;55.154;14.722;2024-02-26T09:22:04;11.38;;;6.25;;
80961;SDS011;70424;55.154;14.722;2024-02-26T09:24:29;10.68;;;6.47;;
80961;SDS011;70424;55.154;14.722;2024-02-26T09:26:55;11.27;;;6.78;;
80961;SDS011;70424;55.154;14.722;2024-02-26T09:29:20;10.10;;;6.82;;
80961;SDS011;70424;55.154;14.722;2024-02-26T09:31:46;10.85;;;7.30;;
80961;SDS011;70424;55.154;14.722;2024-02-26T09:34:14;10.82;;;7.45;;
80961;SDS011;70424;55.154;14.722;2024-02-26T09:36:40;9.52;;;6.32;;
80961;SDS011;70424;55.154;14.722;2024-02-26T09:39:05;8.05;;;4.93;;
80961;SDS011;70424;55.154;14.722;2024-02-26T09:41:33;6.68;;;4.78;;
80961;SDS011;70424;55.154;14.722;2024-02-26T09:43:59;7.13;;;4.75;;
80961;SDS011;70424;55.154;14.722;2024-02-26T09:46:28;7.18;;;4.55;;
80961;SDS011;70424;55.154;14.722;2024-02-26T09:48:53;8.48;;;5.05;;
80961;SDS011;70424;55.154;14.722;2024-02-26T09:51:19;6.97;;;4.38;;
80961;SDS011;70424;55.154;14.722;2024-02-26T09:53:48;7.30;;;4.88;;
80961;SDS011;70424;55.154;14.722;2024-02-26T09:56:17;8.02;;;5.40;;
80961;SDS011;70424;55.154;14.722;2024-02-26T09:58:42;8.35;;;5.20;;
80961;SDS011;70424;55.154;14.722;2024-02-26T10:03:43;6.30;;;4.35;;
80961;SDS011;70424;55.154;14.722;2024-02-26T10:06:10;7.82;;;4.55;;
80961;SDS011;70424;55.154;14.722;2024-02-26T10:08:35;6.85;;;4.35;;
80961;SDS011;70424;55.154;14.722;2024-02-26T10:11:04;9.32;;;5.00;;
80961;SDS011;70424;55.154;14.722;2024-02-26T10:13:31;8.10;;;4.63;;
80961;SDS011;70424;55.154;14.722;2024-02-26T10:15:57;6.85;;;4.97;;
80961;SDS011;70424;55.154;14.722;2024-02-26T10:18:23;6.50;;;4.32;;
80961;SDS011;70424;55.154;14.722;2024-02-26T10:20:58;6.75;;;4.90;;
80961;SDS011;70424;55.154;14.722;2024-02-26T10:23:27;8.27;;;5.28;;
80961;SDS011;70424;55.154;14.722;2024-02-26T10:25:56;7.45;;;4.93;;
80961;SDS011;70424;55.154;14.722;2024-02-26T10:28:22;11.30;;;7.55;;
80961;SDS011;70424;55.154;14.722;2024-02-26T10:30:48;8.82;;;5.85;;
80961;SDS011;70424;55.154;14.722;2024-02-26T10:33:13;13.13;;;7.95;;
80961;SDS011;70424;55.154;14.722;2024-02-26T10:35:39;8.02;;;4.93;;
80961;SDS011;70424;55.154;14.722;2024-02-26T10:38:06;7.82;;;5.45;;
80961;SDS011;70424;55.154;14.722;2024-02-26T10:40:32;7.28;;;5.15;;
80961;SDS011;70424;55.154;14.722;2024-02-26T10:42:58;7.40;;;4.80;;
80961;SDS011;70424;55.154;14.722;2024-02-26T10:45:23;8.23;;;5.40;;
80961;SDS011;70424;55.154;14.722;2024-02-26T10:47:49;7.72;;;4.60;;
80961;SDS011;70424;55.154;14.722;2024-02-26T10:50:15;8.63;;;4.75;;
80961;SDS011;70424;55.154;14.722;2024-02-26T10:52:42;7.63;;;5.47;;
80961;SDS011;70424;55.154;14.722;2024-02-26T10:55:07;7.95;;;5.57;;
80961;SDS011;70424;55.154;14.722;2024-02-26T10:57:39;6.57;;;4.63;;
80961;SDS011;70424;55.154;14.722;2024-02-26T11:00:06;6.25;;;4.25;;
80961;SDS011;70424;55.154;14.722;2024-02-26T11:02:32;7.43;;;4.43;;
80961;SDS011;70424;55.154;14.722;2024-02-26T11:05:00;6.60;;;4.25;;
80961;SDS011;70424;55.154;14.722;2024-02-26T11:07:28;7.05;;;4.60;;
80961;SDS011;70424;55.154;14.722;2024-02-26T11:09:55;6.82;;;4.28;;
80961;SDS011;70424;55.154;14.722;2024-02-26T11:12:22;5.57;;;3.80;;
80961;SDS011;70424;55.154;14.722;2024-02-26T11:14:49;6.63;;;4.37;;
80961;SDS011;70424;55.154;14.722;2024-02-26T11:17:19;7.20;;;4.78;;
80961;SDS011;70424;55.154;14.722;2024-02-26T11:19:46;6.95;;;4.65;;
80961;SDS011;70424;55.154;14.722;2024-02-26T11:22:14;7.68;;;4.75;;
80961;SDS011;70424;55.154;14.722;2024-02-26T11:24:40;6.43;;;4.72;;
80961;SDS011;70424;55.154;14.722;2024-02-26T11:27:07;7.95;;;4.97;;
80961;SDS011;70424;55.154;14.722;2024-02-26T11:29:43;6.45;;;4.88;;
80961;SDS011;70424;55.154;14.722;2024-02-26T11:32:13;7.43;;;4.75;;
80961;SDS011;70424;55.154;14.722;2024-02-26T11:34:39;6.80;;;4.47;;
80961;SDS011;70424;55.154;14.722;2024-02-26T11:37:09;7.45;;;4.78;;
80961;SDS011;70424;55.154;14.722;2024-02-26T11:39:35;5.82;;;4.30;;
80961;SDS011;70424;55.154;14.722;2024-02-26T11:42:05;6.13;;;4.28;;
80961;SDS011;70424;55.154;14.722;2024-02-26T11:44:31;7.80;;;4.13;;
80961;SDS011;70424;55.154;14.722;2024-02-26T11:46:57;7.20;;;5.05;;
80961;SDS011;70424;55.154;14.722;2024-02-26T11:51:55;6.60;;;5.20;;
80961;SDS011;70424;55.154;14.722;2024-02-26T11:57:24;6.93;;;4.30;;
80961;SDS011;70424;55.154;14.722;2024-02-26T12:00:09;6.10;;;4.15;;
80961;SDS011;70424;55.154;14.722;2024-02-26T12:02:52;6.47;;;4.57;;
80961;SDS011;70424;55.154;14.722;2024-02-26T12:07:54;7.53;;;4.10;;
80961;SDS011;70424;55.154;14.722;2024-02-26T12:12:47;6.70;;;3.70;;
80961;SDS011;70424;55.154;14.722;2024-02-26T12:15:14;6.13;;;3.80;;
80961;SDS011;70424;55.154;14.722;2024-02-26T12:17:40;6.93;;;4.22;;
80961;SDS011;70424;55.154;14.722;2024-02-26T12:20:09;7.18;;;4.95;;
80961;SDS011;70424;55.154;14.722;2024-02-26T12:22:35;7.93;;;5.30;;
80961;SDS011;70424;55.154;14.722;2024-02-26T12:25:04;9.05;;;5.78;;
80961;SDS011;70424;55.154;14.722;2024-02-26T12:27:30;6.97;;;4.70;;
80961;SDS011;70424;55.154;14.722;2024-02-26T12:29:56;6.40;;;4.65;;
80961;SDS011;70424;55.154;14.722;2024-02-26T12:32:22;6.22;;;4.35;;
80961;SDS011;70424;55.154;14.722;2024-02-26T12:34:48;6.40;;;4.15;;
80961;SDS011;70424;55.154;14.722;2024-02-26T12:37:14;5.90;;;4.07;;
80961;SDS011;70424;55.154;14.722;2024-02-26T12:39:40;6.93;;;3.88;;
80961;SDS011;70424;55.154;14.722;2024-02-26T12:42:06;6.35;;;4.07;;
80961;SDS011;70424;55.154;14.722;2024-02-26T12:44:31;5.60;;;3.60;;
80961;SDS011;70424;55.154;14.722;2024-02-26T12:47:03;5.78;;;3.50;;
80961;SDS011;70424;55.154;14.722;2024-02-26T12:49:29;5.00;;;3.38;;
80961;SDS011;70424;55.154;14.722;2024-02-26T12:51:55;6.47;;;4.32;;
80961;SDS011;70424;55.154;14.722;2024-02-26T12:54:27;5.63;;;3.70;;
80961;SDS011;70424;55.154;14.722;2024-02-26T12:56:54;6.38;;;4.07;;
80961;SDS011;70424;55.154;14.722;2024-02-26T12:59:20;7.13;;;4.38;;
80961;SDS011;70424;55.154;14.722;2024-02-26T13:01:46;6.03;;;3.72;;
80961;SDS011;70424;55.154;14.722;2024-02-26T13:04:11;6.05;;;3.67;;
80961;SDS011;70424;55.154;14.722;2024-02-26T13:06:37;5.50;;;3.70;;
80961;SDS011;70424;55.154;14.722;2024-02-26T13:09:03;5.28;;;3.85;;
80961;SDS011;70424;55.154;14.722;2024-02-26T13:11:29;6.05;;;3.72;;
80961;SDS011;70424;55.154;14.722;2024-02-26T13:13:56;7.50;;;3.95;;
80961;SDS011;70424;55.154;14.722;2024-02-26T13:16:23;6.50;;;4.53;;
80961;SDS011;70424;55.154;14.722;2024-02-26T13:18:49;6.93;;;4.03;;
80961;SDS011;70424;55.154;14.722;2024-02-26T13:21:15;6.15;;;3.97;;
80961;SDS011;70424;55.154;14.722;2024-02-26T13:23:43;5.97;;;3.95;;
80961;SDS011;70424;55.154;14.722;2024-02-26T13:26:13;6.07;;;3.88;;
80961;SDS011;70424;55.154;14.722;2024-02-26T13:28:39;7.22;;;4.30;;
80961;SDS011;70424;55.154;14.722;2024-02-26T13:31:05;7.05;;;4.13;;
80961;SDS011;70424;55.154;14.722;2024-02-26T13:33:32;6.32;;;4.28;;
80961;SDS011;70424;55.154;14.722;2024-02-26T13:35:58;6.85;;;4.10;;
80961;SDS011;70424;55.154;14.722;2024-02-26T13:38:25;6.70;;;4.07;;
80961;SDS011;70424;55.154;14.722;2024-02-26T13:40:51;5.75;;;4.05;;
80961;SDS011;70424;55.154;14.722;2024-02-26T13:43:17;7.00;;;4.20;;
80961;SDS011;70424;55.154;14.722;2024-02-26T13:45:43;7.05;;;4.22;;
80961;SDS011;70424;55.154;14.722;2024-02-26T13:48:09;6.53;;;4.40;;
80961;SDS011;70424;55.154;14.722;2024-02-26T13:50:36;8.75;;;4.57;;
80961;SDS011;70424;55.154;14.722;2024-02-26T13:53:02;6.00;;;3.80;;
80961;SDS011;70424;55.154;14.722;2024-02-26T13:55:28;6.70;;;4.22;;
80961;SDS011;70424;55.154;14.722;2024-02-26T13:57:58;5.80;;;3.53;;
80961;SDS011;70424;55.154;14.722;2024-02-26T14:00:30;5.45;;;3.72;;
80961;SDS011;70424;55.154;14.722;2024-02-26T14:02:59;5.85;;;3.80;;
80961;SDS011;70424;55.154;14.722;2024-02-26T14:05:25;7.68;;;4.53;;
80961;SDS011;70424;55.154;14.722;2024-02-26T14:07:51;9.98;;;5.47;;
80961;SDS011;70424;55.154;14.722;2024-02-26T14:10:17;7.43;;;5.30;;
80961;SDS011;70424;55.154;14.722;2024-02-26T14:12:43;8.20;;;5.78;;
80961;SDS011;70424;55.154;14.722;2024-02-26T14:15:09;8.25;;;5.93;;
80961;SDS011;70424;55.154;14.722;2024-02-26T14:17:35;7.63;;;5.93;;
80961;SDS011;70424;55.154;14.722;2024-02-26T14:20:01;8.95;;;6.30;;
80961;SDS011;70424;55.154;14.722;2024-02-26T14:22:28;9.93;;;6.97;;
80961;SDS011;70424;55.154;14.722;2024-02-26T14:24:55;8.43;;;6.28;;
80961;SDS011;70424;55.154;14.722;2024-02-26T14:27:21;9.63;;;6.50;;
80961;SDS011;70424;55.154;14.722;2024-02-26T14:29:47;9.65;;;6.30;;
80961;SDS011;70424;55.154;14.722;2024-02-26T14:32:13;8.40;;;6.05;;
80961;SDS011;70424;55.154;14.722;2024-02-26T14:34:39;8.25;;;6.07;;
80961;SDS011;70424;55.154;14.722;2024-02-26T14:37:04;9.48;;;6.75;;